Autaugaville, AL

8:13 AM CST on December 22, 2014 (GMT -0600)
Kingston Pines | Change Station
CLOSE
Current Station
Personal Weather Station
Location: Prattville, AL
Elevation: 538 ft
Nearby Weather Stations

Elev 538 ft 32.55 °N, 86.55 °W | Updated 10 minutes ago

Fog
Fog
49.1 °F
Feels Like 49 °F
N
2.7
Wind Variable Wind from ESE

Today
High -- | Low -- °F
--% Chance of Precip.
Yesterday
High -- | Low -- °F
Precip. -- in
6:44 AM 4:46 PM
New Moon, 0% visible
Pressure 29.97 in
Visibility 10.0 miles
Clouds Overcast 500 ft
Windchill 49 °F
Dew Point 46 °F
Humidity 89%
Rainfall 0.00 in
Snow Depth Not available.
UV 0 out of 12
Pollen 1.80 out of 12
Air Quality Not available.
Flu Activity Not available.
SPECI KMXF 221408Z AUTO 10008KT 10SM OVC005 10/10 A2997 RMK AO2

More Conditions Fewer Conditions

Pressure 29.97 in
Visibility 10.0 miles
Clouds Overcast 500 ft
Windchill 49 °F
Dew Point 46 °F
Humidity 89%
Rainfall 0.00 in
Snow Depth Not available.
UV 0 out of 12
Pollen 1.80 out of 12
Air Quality Not available.
Flu Activity Not available.
SPECI KMXF 221408Z AUTO 10008KT 10SM OVC005 10/10 A2997 RMK AO2

More Conditions Fewer Conditions

10-Day Weather Forecast

Almanac

Astronomy

Dec. 22, 2014 Rise Set
Actual Time
Civil Twilight
Nautical Twilight
Astronomical Twilight
Moon
Length of Visible Light
Length of Day
Tomorrow will be .
, % of the Moon is Illuminated

Today's Extremes

State Highs State Lows

Community

WunderPhotos

Upload Photos

1,779,602 photos uploaded!

WunderBlogs® & News

Nearby

Air Quality

  Air Quality AQ Index Pollutant
Not available.

Snow Depth

Station Depth Elevation

Earthquake Activity

City Distance Mag. Time & Date
Minimum magnitude displayed is 2.5.

Coastal Water Temperatures

Place Temperature

Nearby Weather Stations